Terminal Aerodrome Forecast
Issued by NWS Topeka, KS

Home | Current Version | Previous Version | Text Only | Print | Product List | Glossary On
Versions: 1 2 3 4 5 6 7 8 9 10 11 12 13 14 15
000
FTUS43 KTOP 270500
TAFTOP
TAF
KTOP 270537Z 2706/2806 34006KT 6SM BR OVC005
     FM270900 31009KT P6SM OVC015
     FM271300 31010KT P6SM OVC025
     FM271700 32009KT P6SM BKN050
     FM272300 31003KT P6SM SCT200=

USA.gov is the U.S. government's official web portal to all federal, state and local government web resources and services.